Time;durP1;ratioP1;P1;durP2;ratioP2;P2;SDS_P1;SDS_P2;PMS_P1;PMS_P2;Temp;Humidity;BMP_temperature;BMP_pressure;BME280_temperature;BME280_humidity;BME280_pressure;Samples;Min_cycle;Max_cycle;Signal;HPM_P1;HPM_P2
2021/12/23 00:01:33;;;;;;;0.45;0.45;;;;;;;;;;6245481;22;20425;-66
2021/12/23 00:03:59;;;;;;;0.00;0.00;;;;;;;;;;6273858;22;19999;-66
2021/12/23 00:06:24;;;;;;;0.00;0.00;;;;;;;;;;6273223;22;20006;-67
2021/12/23 00:08:49;;;;;;;0.75;0.75;;;;;;;;;;6273870;22;20000;-67
2021/12/23 00:11:14;;;;;;;4.40;4.03;;;;;;;;;;6273176;22;19996;-67
2021/12/23 00:13:48;;;;;;;1.35;1.35;;;;;;;;;;6273433;22;20003;-67
2021/12/23 00:16:18;;;;;;;0.00;0.00;;;;;;;;;;6273283;22;20354;-67
2021/12/23 00:18:48;;;;;;;0.00;0.00;;;;;;;;;;6273307;22;20006;-67
2021/12/23 00:24:00;;;;;;;0.00;0.00;;;;;;;;;;6273492;22;20392;-66
2021/12/23 00:26:25;;;;;;;0.00;0.00;;;;;;;;;;6272018;22;20018;-66
2021/12/23 00:28:51;;;;;;;0.20;0.20;;;;;;;;;;6273507;22;19999;-66
2021/12/23 00:31:16;;;;;;;2.30;2.17;;;;;;;;;;6272399;22;20417;-66
2021/12/23 00:33:42;;;;;;;0.00;0.00;;;;;;;;;;6273377;22;19996;-67
2021/12/23 00:36:10;;;;;;;0.00;0.00;;;;;;;;;;6273311;22;20061;-67
2021/12/23 00:38:41;;;;;;;0.00;0.00;;;;;;;;;;6273205;22;20011;-67
2021/12/23 00:41:08;;;;;;;10.43;9.95;;;;;;;;;;6273376;22;19999;-67
2021/12/23 00:43:33;;;;;;;0.25;0.25;;;;;;;;;;6272166;22;20376;-68
2021/12/23 00:45:59;;;;;;;2.55;2.35;;;;;;;;;;6272685;22;20000;-67
2021/12/23 00:48:24;;;;;;;4.95;4.55;;;;;;;;;;6272724;22;20069;-68
2021/12/23 00:50:50;;;;;;;0.10;0.10;;;;;;;;;;6273306;22;20003;-68
2021/12/23 00:53:20;;;;;;;0.00;0.00;;;;;;;;;;6273750;22;20002;-67
2021/12/23 00:55:51;;;;;;;0.00;0.00;;;;;;;;;;6273148;22;20006;-68
2021/12/23 00:58:17;;;;;;;0.00;0.00;;;;;;;;;;6272617;22;20079;-68
2021/12/23 01:00:42;;;;;;;0.00;0.00;;;;;;;;;;6270369;22;20027;-67
2021/12/23 01:03:07;;;;;;;6.18;1.33;;;;;;;;;;6273038;22;20002;-68
2021/12/23 01:05:33;;;;;;;0.10;0.10;;;;;;;;;;6272148;22;20006;-67
2021/12/23 01:07:58;;;;;;;5.75;5.32;;;;;;;;;;6272964;22;20694;-67
2021/12/23 01:10:24;;;;;;;0.00;0.00;;;;;;;;;;6272616;22;20068;-68
2021/12/23 01:12:55;;;;;;;0.38;0.38;;;;;;;;;;6272661;22;20006;-67
2021/12/23 01:20:18;;;;;;;0.00;0.00;;;;;;;;;;6273127;22;20007;-68
2021/12/23 01:22:43;;;;;;;2.65;2.45;;;;;;;;;;6272995;22;20472;-68
2021/12/23 01:25:08;;;;;;;0.00;0.00;;;;;;;;;;6272930;22;20091;-68
2021/12/23 01:27:34;;;;;;;0.00;0.00;;;;;;;;;;6244220;22;20004;-67
2021/12/23 01:30:02;;;;;;;0.17;0.17;;;;;;;;;;6272959;22;20008;-68
2021/12/23 01:32:27;;;;;;;0.00;0.00;;;;;;;;;;6271631;22;19991;-68
2021/12/23 01:34:52;;;;;;;0.65;0.65;;;;;;;;;;6272512;22;20045;-68
2021/12/23 01:37:17;;;;;;;0.00;0.00;;;;;;;;;;6272665;22;20000;-68
2021/12/23 01:39:43;;;;;;;0.00;0.00;;;;;;;;;;6271438;22;19999;-66
2021/12/23 01:42:08;;;;;;;0.30;0.30;;;;;;;;;;6272078;22;19995;-67
2021/12/23 01:44:33;;;;;;;0.05;0.05;;;;;;;;;;6271654;22;19995;-67
2021/12/23 01:46:58;;;;;;;2.40;2.28;;;;;;;;;;6271935;22;20065;-66
2021/12/23 01:49:24;;;;;;;0.55;0.55;;;;;;;;;;6271788;22;19992;-67
2021/12/23 01:51:49;;;;;;;0.80;0.80;;;;;;;;;;6272263;22;20190;-66
2021/12/23 01:54:14;;;;;;;0.20;0.20;;;;;;;;;;6272128;22;19995;-67
2021/12/23 01:56:39;;;;;;;5.05;2.75;;;;;;;;;;6271242;22;20377;-67
2021/12/23 01:59:04;;;;;;;0.30;0.30;;;;;;;;;;6272036;22;20031;-67
2021/12/23 02:01:30;;;;;;;0.00;0.00;;;;;;;;;;6271598;22;20048;-66
2021/12/23 02:03:55;;;;;;;0.00;0.00;;;;;;;;;;6272486;22;20410;-66
2021/12/23 02:06:20;;;;;;;0.28;0.28;;;;;;;;;;6271255;22;20000;-67
2021/12/23 02:08:46;;;;;;;5.97;5.57;;;;;;;;;;6271929;22;19999;-67
2021/12/23 02:11:11;;;;;;;0.00;0.00;;;;;;;;;;6272163;22;20054;-67
2021/12/23 02:13:37;;;;;;;0.00;0.00;;;;;;;;;;6271491;22;19999;-67
2021/12/23 02:16:03;;;;;;;0.10;0.10;;;;;;;;;;6271973;22;20002;-67
2021/12/23 02:18:28;;;;;;;0.00;0.00;;;;;;;;;;6271525;22;20444;-65
2021/12/23 02:20:54;;;;;;;1.20;1.20;;;;;;;;;;6271723;22;20059;-66
2021/12/23 02:23:19;;;;;;;0.00;0.00;;;;;;;;;;6271830;22;20433;-66
2021/12/23 02:25:45;;;;;;;0.43;0.43;;;;;;;;;;6271132;22;20322;-67
2021/12/23 02:28:14;;;;;;;1.30;1.20;;;;;;;;;;6271029;22;20581;-67
2021/12/23 02:30:39;;;;;;;0.00;0.00;;;;;;;;;;6271681;22;19999;-66
2021/12/23 02:33:06;;;;;;;0.00;0.00;;;;;;;;;;6272078;22;20039;-66
2021/12/23 02:35:31;;;;;;;0.00;0.00;;;;;;;;;;6271004;22;20429;-66
2021/12/23 02:37:56;;;;;;;0.00;0.00;;;;;;;;;;6271915;22;20000;-66
2021/12/23 02:40:32;;;;;;;0.00;0.00;;;;;;;;;;6244057;22;20564;-67
2021/12/23 02:43:06;;;;;;;0.73;0.73;;;;;;;;;;6271844;22;20004;-66
2021/12/23 02:45:32;;;;;;;0.50;0.50;;;;;;;;;;6271563;22;20802;-66
2021/12/23 02:47:57;;;;;;;0.47;0.47;;;;;;;;;;6271886;22;20031;-66
2021/12/23 02:50:22;;;;;;;0.00;0.00;;;;;;;;;;6244775;22;20034;-67
2021/12/23 02:52:47;;;;;;;0.00;0.00;;;;;;;;;;6272695;22;19996;-67
2021/12/23 02:55:13;;;;;;;0.00;0.00;;;;;;;;;;6271941;22;20049;-66
2021/12/23 02:57:38;;;;;;;0.00;0.00;;;;;;;;;;6271486;22;20011;-67
2021/12/23 03:00:04;;;;;;;0.00;0.00;;;;;;;;;;6272504;22;20059;-67
2021/12/23 03:02:30;;;;;;;0.00;0.00;;;;;;;;;;6271349;22;20542;-66
2021/12/23 03:04:55;;;;;;;2.88;2.75;;;;;;;;;;6272671;22;20016;-67
2021/12/23 03:07:20;;;;;;;0.00;0.00;;;;;;;;;;6272065;22;19995;-67
2021/12/23 03:09:46;;;;;;;2.40;2.35;;;;;;;;;;6273584;22;20045;-67
2021/12/23 03:12:11;;;;;;;0.10;0.10;;;;;;;;;;6273535;22;20449;-67
2021/12/23 03:14:36;;;;;;;4.47;4.38;;;;;;;;;;6273837;22;20409;-66
2021/12/23 03:17:02;;;;;;;0.98;0.98;;;;;;;;;;6274348;22;19996;-66
2021/12/23 03:19:27;;;;;;;0.00;0.00;;;;;;;;;;6272908;22;20006;-66
2021/12/23 03:21:52;;;;;;;0.00;0.00;;;;;;;;;;6274436;22;20007;-66
2021/12/23 03:24:19;;;;;;;0.00;0.00;;;;;;;;;;6273651;22;20004;-67
2021/12/23 03:26:44;;;;;;;0.30;0.30;;;;;;;;;;6273023;22;20309;-67
2021/12/23 03:29:11;;;;;;;0.00;0.00;;;;;;;;;;6274422;22;20031;-67
2021/12/23 03:31:36;;;;;;;0.80;0.80;;;;;;;;;;6273479;22;20066;-66
2021/12/23 03:34:02;;;;;;;0.00;0.00;;;;;;;;;;6273939;22;20020;-66
2021/12/23 03:36:27;;;;;;;0.00;0.00;;;;;;;;;;6273792;22;20000;-65
2021/12/23 03:38:52;;;;;;;0.00;0.00;;;;;;;;;;6274261;22;20063;-66
2021/12/23 03:41:17;;;;;;;4.93;4.75;;;;;;;;;;6274179;22;20326;-66
2021/12/23 03:43:43;;;;;;;0.00;0.00;;;;;;;;;;6273396;22;20411;-66
2021/12/23 03:46:08;;;;;;;1.27;1.27;;;;;;;;;;6273923;22;20499;-66
2021/12/23 03:48:33;;;;;;;0.00;0.00;;;;;;;;;;6273014;22;19992;-65
2021/12/23 03:50:59;;;;;;;0.00;0.00;;;;;;;;;;6273994;22;20010;-66
2021/12/23 03:53:24;;;;;;;0.00;0.00;;;;;;;;;;6272554;22;20023;-66
2021/12/23 03:55:49;;;;;;;4.03;3.88;;;;;;;;;;6272549;22;20437;-67
2021/12/23 03:58:14;;;;;;;0.00;0.00;;;;;;;;;;6273988;22;20015;-67
2021/12/23 04:00:40;;;;;;;0.00;0.00;;;;;;;;;;6273372;22;20014;-67
2021/12/23 04:03:06;;;;;;;0.00;0.00;;;;;;;;;;6273927;22;20002;-67
2021/12/23 04:05:31;;;;;;;0.00;0.00;;;;;;;;;;6246209;22;20128;-67
2021/12/23 04:07:56;;;;;;;0.00;0.00;;;;;;;;;;6273866;22;20007;-67
2021/12/23 04:10:22;;;;;;;0.00;0.00;;;;;;;;;;6273598;22;19992;-67
2021/12/23 04:12:47;;;;;;;0.00;0.00;;;;;;;;;;6272832;22;19991;-67
2021/12/23 04:15:13;;;;;;;0.00;0.00;;;;;;;;;;6273913;22;20030;-67
2021/12/23 04:17:38;;;;;;;1.55;1.45;;;;;;;;;;6273138;22;20003;-67
2021/12/23 04:20:17;;;;;;;0.00;0.00;;;;;;;;;;6273621;22;20034;-66
2021/12/23 04:22:43;;;;;;;1.65;1.65;;;;;;;;;;6272606;22;19996;-66
2021/12/23 04:25:09;;;;;;;37.25;9.60;;;;;;;;;;6273165;22;20065;-66
2021/12/23 04:27:34;;;;;;;0.00;0.00;;;;;;;;;;6272930;22;20640;-66
2021/12/23 04:29:59;;;;;;;0.00;0.00;;;;;;;;;;6273654;22;20003;-66
2021/12/23 04:32:26;;;;;;;0.10;0.10;;;;;;;;;;6272779;22;20008;-67
2021/12/23 04:34:52;;;;;;;1.00;1.00;;;;;;;;;;6273491;22;20004;-66
2021/12/23 04:37:17;;;;;;;0.00;0.00;;;;;;;;;;6273574;22;20006;-66
2021/12/23 04:39:42;;;;;;;0.00;0.00;;;;;;;;;;6272805;22;20039;-66
2021/12/23 04:42:08;;;;;;;0.00;0.00;;;;;;;;;;6273364;22;20103;-67
2021/12/23 04:44:33;;;;;;;0.00;0.00;;;;;;;;;;6272456;22;20569;-66
2021/12/23 04:46:58;;;;;;;0.00;0.00;;;;;;;;;;6273453;22;19999;-65
2021/12/23 04:49:23;;;;;;;0.32;0.32;;;;;;;;;;6272956;22;19992;-66
2021/12/23 04:51:49;;;;;;;0.00;0.00;;;;;;;;;;6272925;22;20420;-66
2021/12/23 04:54:14;;;;;;;0.00;0.00;;;;;;;;;;6273209;22;19996;-66
2021/12/23 04:56:40;;;;;;;0.10;0.10;;;;;;;;;;6245316;22;20010;-67
2021/12/23 04:59:05;;;;;;;0.25;0.25;;;;;;;;;;6273150;22;20334;-66
2021/12/23 05:01:32;;;;;;;0.00;0.00;;;;;;;;;;6272198;22;20000;-66
2021/12/23 05:03:57;;;;;;;0.00;0.00;;;;;;;;;;6273272;22;20061;-65
2021/12/23 05:06:23;;;;;;;0.03;0.03;;;;;;;;;;6245724;22;20360;-66
2021/12/23 05:08:48;;;;;;;0.00;0.00;;;;;;;;;;6272642;22;20034;-66
2021/12/23 05:11:13;;;;;;;0.00;0.00;;;;;;;;;;6272933;22;20451;-66
2021/12/23 05:13:39;;;;;;;0.00;0.00;;;;;;;;;;6272402;22;19999;-66
2021/12/23 05:16:04;;;;;;;0.00;0.00;;;;;;;;;;6273272;22;20046;-65
2021/12/23 05:18:30;;;;;;;0.00;0.00;;;;;;;;;;6271665;22;20054;-67
2021/12/23 05:20:55;;;;;;;0.00;0.00;;;;;;;;;;6272916;22;20848;-67
2021/12/23 05:23:20;;;;;;;0.00;0.00;;;;;;;;;;6273136;22;19991;-66
2021/12/23 05:25:45;;;;;;;0.00;0.00;;;;;;;;;;6272019;22;20018;-66
2021/12/23 05:28:11;;;;;;;0.00;0.00;;;;;;;;;;6272572;22;20027;-65
2021/12/23 05:30:37;;;;;;;0.80;0.80;;;;;;;;;;6271825;22;20000;-65
2021/12/23 05:33:02;;;;;;;0.00;0.00;;;;;;;;;;6272749;22;20053;-66
2021/12/23 05:35:27;;;;;;;0.00;0.00;;;;;;;;;;6272449;22;20034;-65
2021/12/23 05:37:53;;;;;;;2.28;2.28;;;;;;;;;;6272182;22;20372;-66
2021/12/23 05:40:20;;;;;;;6.50;2.10;;;;;;;;;;6272715;22;20302;-67
2021/12/23 05:42:46;;;;;;;0.85;0.80;;;;;;;;;;6272103;22;20037;-67
2021/12/23 05:45:11;;;;;;;0.00;0.00;;;;;;;;;;6272552;22;20006;-67
2021/12/23 05:47:37;;;;;;;0.00;0.00;;;;;;;;;;6270804;22;20074;-66
2021/12/23 05:50:03;;;;;;;0.00;0.00;;;;;;;;;;6272555;22;20053;-67
2021/12/23 05:52:28;;;;;;;0.00;0.00;;;;;;;;;;6271878;22;20027;-66
2021/12/23 05:54:53;;;;;;;0.10;0.10;;;;;;;;;;6245328;22;20057;-66
2021/12/23 05:57:19;;;;;;;0.00;0.00;;;;;;;;;;6272488;22;19999;-67
2021/12/23 05:59:45;;;;;;;1.50;1.50;;;;;;;;;;6244789;22;20015;-66
2021/12/23 06:02:10;;;;;;;0.00;0.00;;;;;;;;;;6272310;22;20004;-66
2021/12/23 06:04:36;;;;;;;0.00;0.00;;;;;;;;;;6271923;22;20383;-66
2021/12/23 06:07:02;;;;;;;5.25;5.05;;;;;;;;;;6272342;22;20003;-67
2021/12/23 06:09:27;;;;;;;0.10;0.10;;;;;;;;;;6272406;22;19996;-66
2021/12/23 06:11:52;;;;;;;0.00;0.00;;;;;;;;;;6271924;22;19999;-68
2021/12/23 06:14:19;;;;;;;0.00;0.00;;;;;;;;;;6272308;22;20022;-67
2021/12/23 06:16:44;;;;;;;0.10;0.10;;;;;;;;;;6270630;22;20410;-68
2021/12/23 06:19:09;;;;;;;0.32;0.32;;;;;;;;;;6272163;22;20007;-68
2021/12/23 06:21:35;;;;;;;0.00;0.00;;;;;;;;;;6271727;22;20004;-67
2021/12/23 06:24:03;;;;;;;0.35;0.35;;;;;;;;;;6272456;22;20000;-67
2021/12/23 06:26:28;;;;;;;0.00;0.00;;;;;;;;;;6244771;22;20026;-66
2021/12/23 06:28:53;;;;;;;0.03;0.03;;;;;;;;;;6271875;22;20090;-65
2021/12/23 06:31:19;;;;;;;0.70;0.70;;;;;;;;;;6272254;22;20075;-66
2021/12/23 06:33:44;;;;;;;0.70;0.70;;;;;;;;;;6271066;22;19996;-67
2021/12/23 06:36:09;;;;;;;1.55;1.55;;;;;;;;;;6272089;22;20034;-67
2021/12/23 06:38:35;;;;;;;0.82;0.82;;;;;;;;;;6244614;22;20306;-66
2021/12/23 06:41:00;;;;;;;1.75;1.70;;;;;;;;;;6272432;22;20306;-67
2021/12/23 06:43:26;;;;;;;2.40;2.15;;;;;;;;;;6273254;22;19996;-67
2021/12/23 06:45:51;;;;;;;0.28;0.28;;;;;;;;;;6273076;22;20002;-67
2021/12/23 06:48:16;;;;;;;2.58;2.50;;;;;;;;;;6273664;22;20075;-66
2021/12/23 06:50:42;;;;;;;2.25;2.25;;;;;;;;;;6273639;22;19996;-67
2021/12/23 06:53:07;;;;;;;0.35;0.35;;;;;;;;;;6273592;22;20495;-64
2021/12/23 06:55:33;;;;;;;0.00;0.00;;;;;;;;;;6274476;22;20026;-63
2021/12/23 06:57:58;;;;;;;0.10;0.10;;;;;;;;;;6274492;22;20012;-63
2021/12/23 07:00:27;;;;;;;1.23;1.17;;;;;;;;;;6274279;22;20054;-64
2021/12/23 07:02:53;;;;;;;0.17;0.17;;;;;;;;;;6272995;22;20638;-63
2021/12/23 07:05:19;;;;;;;0.00;0.00;;;;;;;;;;6274427;22;20003;-63
2021/12/23 07:08:04;;;;;;;0.10;0.10;;;;;;;;;;6273549;22;20004;-63
2021/12/23 07:10:29;;;;;;;0.00;0.00;;;;;;;;;;6274388;22;20022;-61
2021/12/23 07:12:55;;;;;;;0.00;0.00;;;;;;;;;;6272976;22;19996;-62
2021/12/23 07:15:20;;;;;;;0.00;0.00;;;;;;;;;;6273033;22;20002;-63
2021/12/23 07:17:46;;;;;;;0.00;0.00;;;;;;;;;;6273742;22;20031;-65
2021/12/23 07:20:11;;;;;;;0.00;0.00;;;;;;;;;;6274332;22;20345;-62
2021/12/23 07:22:36;;;;;;;0.35;0.35;;;;;;;;;;6272862;22;19996;-63
2021/12/23 07:25:02;;;;;;;0.00;0.00;;;;;;;;;;6273945;22;20010;-65
2021/12/23 07:27:27;;;;;;;0.00;0.00;;;;;;;;;;6274216;22;20095;-64
2021/12/23 07:29:53;;;;;;;2.20;1.90;;;;;;;;;;6273249;22;20297;-64
2021/12/23 07:32:18;;;;;;;0.00;0.00;;;;;;;;;;6273981;22;19992;-65
2021/12/23 07:34:43;;;;;;;0.00;0.00;;;;;;;;;;6272828;22;19995;-64
2021/12/23 07:37:09;;;;;;;0.13;0.13;;;;;;;;;;6273661;22;20032;-64
2021/12/23 07:39:35;;;;;;;0.00;0.00;;;;;;;;;;6273401;22;20027;-64
2021/12/23 07:42:00;;;;;;;0.30;0.30;;;;;;;;;;6273353;22;20003;-64
2021/12/23 07:44:26;;;;;;;0.08;0.08;;;;;;;;;;6273105;22;20032;-64
2021/12/23 07:46:51;;;;;;;0.00;0.00;;;;;;;;;;6272902;22;19999;-64
2021/12/23 07:49:17;;;;;;;0.30;0.30;;;;;;;;;;6272332;22;20042;-64
2021/12/23 07:51:42;;;;;;;0.43;0.43;;;;;;;;;;6273468;22;19996;-64
2021/12/23 07:54:07;;;;;;;0.00;0.00;;;;;;;;;;6273722;22;20030;-65
2021/12/23 07:56:32;;;;;;;0.17;0.17;;;;;;;;;;6273981;22;20360;-65
2021/12/23 07:58:58;;;;;;;0.10;0.10;;;;;;;;;;6272392;22;20003;-64
2021/12/23 08:01:23;;;;;;;0.10;0.10;;;;;;;;;;6273194;22;20004;-66
2021/12/23 08:03:48;;;;;;;0.00;0.00;;;;;;;;;;6272979;22;19996;-65
2021/12/23 08:06:14;;;;;;;0.00;0.00;;;;;;;;;;6246027;22;20003;-65
2021/12/23 08:08:39;;;;;;;0.00;0.00;;;;;;;;;;6273112;22;20076;-65
2021/12/23 08:11:06;;;;;;;2.72;2.55;;;;;;;;;;6273175;22;20023;-65
2021/12/23 08:13:31;;;;;;;0.43;0.43;;;;;;;;;;6245964;22;20074;-64
2021/12/23 08:15:58;;;;;;;0.00;0.00;;;;;;;;;;6272808;22;20342;-65
2021/12/23 08:18:23;;;;;;;0.00;0.00;;;;;;;;;;6272595;22;20003;-65
2021/12/23 08:20:48;;;;;;;0.00;0.00;;;;;;;;;;6272892;22;20141;-65
2021/12/23 08:23:13;;;;;;;0.52;0.52;;;;;;;;;;6273354;22;20381;-65
2021/12/23 08:25:39;;;;;;;2.03;1.88;;;;;;;;;;6272382;22;20451;-65
2021/12/23 08:28:04;;;;;;;0.00;0.00;;;;;;;;;;6273252;22;20011;-64
2021/12/23 08:30:29;;;;;;;0.00;0.00;;;;;;;;;;6273236;22;20004;-64
2021/12/23 08:32:55;;;;;;;0.32;0.32;;;;;;;;;;6272195;22;19995;-64
2021/12/23 08:35:20;;;;;;;0.00;0.00;;;;;;;;;;6272890;22;20007;-64
2021/12/23 08:37:46;;;;;;;1.35;1.35;;;;;;;;;;6271165;22;20007;-65
2021/12/23 08:40:13;;;;;;;0.00;0.00;;;;;;;;;;6272460;22;20004;-64
2021/12/23 08:42:39;;;;;;;0.22;0.22;;;;;;;;;;6272443;22;20022;-62
2021/12/23 08:45:05;;;;;;;0.00;0.00;;;;;;;;;;6272889;22;20019;-62
2021/12/23 08:47:30;;;;;;;0.00;0.00;;;;;;;;;;6272383;22;20421;-63
2021/12/23 08:49:56;;;;;;;0.00;0.00;;;;;;;;;;6272689;22;19996;-63
2021/12/23 08:52:21;;;;;;;0.10;0.10;;;;;;;;;;6272362;22;20046;-63
2021/12/23 08:54:46;;;;;;;1.30;1.30;;;;;;;;;;6271808;22;20004;-63
2021/12/23 08:57:12;;;;;;;15.02;13.63;;;;;;;;;;6273193;22;19999;-63
2021/12/23 08:59:37;;;;;;;0.10;0.10;;;;;;;;;;6270914;22;20006;-63
2021/12/23 09:02:03;;;;;;;0.10;0.10;;;;;;;;;;6270895;22;20034;-63
2021/12/23 09:04:28;;;;;;;0.00;0.00;;;;;;;;;;6271926;22;20082;-63
2021/12/23 09:06:53;;;;;;;7.07;6.38;;;;;;;;;;6271763;22;20007;-63
2021/12/23 09:09:19;;;;;;;0.00;0.00;;;;;;;;;;6270772;22;20007;-63
2021/12/23 09:11:45;;;;;;;1.00;1.00;;;;;;;;;;6272223;22;20007;-64
2021/12/23 09:14:10;;;;;;;3.55;3.25;;;;;;;;;;6270727;22;20004;-63
2021/12/23 09:16:36;;;;;;;8.35;7.60;;;;;;;;;;6271677;22;19996;-62
2021/12/23 09:19:02;;;;;;;0.30;0.30;;;;;;;;;;6272045;22;19995;-63
2021/12/23 09:21:27;;;;;;;0.80;0.80;;;;;;;;;;6272114;22;19996;-63
2021/12/23 09:23:53;;;;;;;1.02;0.98;;;;;;;;;;6271494;22;20006;-61
2021/12/23 09:26:18;;;;;;;4.57;2.75;;;;;;;;;;6271364;22;20015;-64
2021/12/23 09:34:03;;;;;;;10.55;4.97;;;;;;;;;;6224501;22;20798;-64
2021/12/23 09:36:28;;;;;;;2.65;2.45;;;;;;;;;;6218282;22;20000;-63
2021/12/23 09:38:53;;;;;;;2.08;2.03;;;;;;;;;;6272508;22;20325;-62
2021/12/23 09:41:20;;;;;;;3.47;3.17;;;;;;;;;;6271844;22;20045;-62
2021/12/23 09:43:46;;;;;;;3.78;2.28;;;;;;;;;;6272164;22;20341;-62
2021/12/23 09:46:13;;;;;;;2.55;2.45;;;;;;;;;;6271898;22;20601;-61
2021/12/23 09:48:40;;;;;;;6.13;4.47;;;;;;;;;;6271217;22;20063;-62
2021/12/23 09:51:06;;;;;;;0.00;0.00;;;;;;;;;;6272332;22;20008;-62
2021/12/23 09:53:32;;;;;;;1.17;1.05;;;;;;;;;;6271036;22;20007;-62
2021/12/23 09:55:58;;;;;;;0.00;0.00;;;;;;;;;;6270561;22;20003;-62
2021/12/23 09:58:23;;;;;;;3.50;1.98;;;;;;;;;;6271124;22;20011;-62
2021/12/23 10:00:49;;;;;;;4.40;4.10;;;;;;;;;;6272235;22;20026;-62
2021/12/23 10:03:16;;;;;;;4.22;3.88;;;;;;;;;;6271630;22;20007;-62
2021/12/23 10:05:41;;;;;;;3.92;2.90;;;;;;;;;;6267999;22;20027;-69
2021/12/23 10:08:08;;;;;;;0.77;0.77;;;;;;;;;;6268106;22;20046;-70
2021/12/23 10:10:51;;;;;;;0.30;0.30;;;;;;;;;;6269276;22;20044;-69
2021/12/23 10:27:41;;;;;;;0.10;0.10;;;;;;;;;;6268526;22;20022;-69
2021/12/23 10:32:56;;;;;;;2.72;2.50;;;;;;;;;;6269507;22;20014;-69
2021/12/23 10:38:09;;;;;;;0.00;0.00;;;;;;;;;;6270183;22;20011;-69
2021/12/23 10:40:36;;;;;;;0.00;0.00;;;;;;;;;;6270102;22;20008;-69
2021/12/23 10:43:01;;;;;;;0.00;0.00;;;;;;;;;;6269616;22;19999;-71
2021/12/23 10:45:35;;;;;;;0.00;0.00;;;;;;;;;;6269879;22;20057;-69
2021/12/23 10:48:08;;;;;;;0.00;0.00;;;;;;;;;;6269093;22;20061;-69
2021/12/23 10:50:40;;;;;;;2.28;2.15;;;;;;;;;;6269808;22;20000;-68
2021/12/23 10:53:10;;;;;;;0.05;0.05;;;;;;;;;;6269186;22;20022;-68
2021/12/23 10:58:20;;;;;;;0.93;0.93;;;;;;;;;;6269987;22;20018;-70
2021/12/23 11:00:49;;;;;;;0.10;0.10;;;;;;;;;;6269934;22;20003;-69
2021/12/23 11:03:27;;;;;;;1.67;1.58;;;;;;;;;;6269570;22;19998;-69
2021/12/23 11:06:28;;;;;;;0.00;0.00;;;;;;;;;;6268281;22;20787;-70
2021/12/23 11:09:17;;;;;;;0.00;0.00;;;;;;;;;;6268171;22;20019;-69
2021/12/23 11:29:23;;;;;;;0.20;0.13;;;;;;;;;;6269745;22;20065;-71
2021/12/23 11:43:49;;;;;;;0.00;0.00;;;;;;;;;;6283764;22;20004;-74
2021/12/23 11:46:43;;;;;;;11.15;5.38;;;;;;;;;;6272939;22;20024;-70
2021/12/23 11:49:11;;;;;;;0.20;0.20;;;;;;;;;;6274167;22;19995;-74
2021/12/23 11:54:06;;;;;;;1.27;1.25;;;;;;;;;;6273275;22;20000;-72
2021/12/23 11:56:32;;;;;;;0.20;0.20;;;;;;;;;;6272216;22;20011;-75
2021/12/23 11:59:00;;;;;;;1.30;1.30;;;;;;;;;;6275259;22;20003;-73
2021/12/23 12:01:28;;;;;;;0.05;0.05;;;;;;;;;;6276576;22;20061;-74
2021/12/23 12:03:53;;;;;;;2.25;1.95;;;;;;;;;;6248797;22;20004;-73
2021/12/23 12:06:20;;;;;;;0.00;0.00;;;;;;;;;;6275586;22;20076;-73
2021/12/23 12:08:46;;;;;;;0.73;0.73;;;;;;;;;;6276081;22;20002;-72
2021/12/23 12:11:15;;;;;;;0.47;0.47;;;;;;;;;;6276397;22;19995;-73
2021/12/23 12:13:40;;;;;;;;;;;;;;;;;;6276673;22;19996;-73
2021/12/23 12:16:25;;;;;;;0.00;0.00;;;;;;;;;;6275538;22;19899;-73
2021/12/23 12:18:50;;;;;;;0.10;0.10;;;;;;;;;;6276228;22;20003;-72
2021/12/23 12:21:31;;;;;;;0.30;0.30;;;;;;;;;;6276322;22;20291;-73
2021/12/23 12:24:25;;;;;;;2.30;1.85;;;;;;;;;;6277247;22;19999;-72
2021/12/23 12:26:55;;;;;;;1.20;1.20;;;;;;;;;;6243089;22;20023;-73
2021/12/23 12:29:25;;;;;;;2.90;1.75;;;;;;;;;;6276332;22;20429;-73
2021/12/23 12:31:50;;;;;;;0.00;0.00;;;;;;;;;;6276035;22;20364;-74
2021/12/23 12:34:19;;;;;;;0.57;0.57;;;;;;;;;;6276519;22;19992;-72
2021/12/23 12:36:47;;;;;;;0.10;0.10;;;;;;;;;;6276328;22;19999;-73
2021/12/23 12:39:15;;;;;;;0.10;0.10;;;;;;;;;;6276960;22;20214;-73
2021/12/23 12:41:40;;;;;;;1.83;1.75;;;;;;;;;;6276890;22;20356;-73
2021/12/23 12:44:13;;;;;;;0.30;0.30;;;;;;;;;;6276883;22;19995;-73
2021/12/23 12:49:22;;;;;;;0.20;0.20;;;;;;;;;;6277236;22;20053;-72
2021/12/23 12:51:48;;;;;;;1.33;1.02;;;;;;;;;;6276638;22;20348;-73
2021/12/23 12:54:16;;;;;;;0.93;0.93;;;;;;;;;;6276097;22;19996;-72
2021/12/23 12:56:46;;;;;;;1.88;1.35;;;;;;;;;;6275998;22;20002;-73
2021/12/23 12:59:12;;;;;;;0.82;0.82;;;;;;;;;;6276903;22;20019;-73
2021/12/23 13:01:41;;;;;;;0.00;0.00;;;;;;;;;;6275795;22;19991;-73
2021/12/23 13:04:19;;;;;;;6.38;5.93;;;;;;;;;;6274838;22;20019;-70
2021/12/23 13:06:44;;;;;;;0.00;0.00;;;;;;;;;;6273969;22;19996;-64
2021/12/23 13:09:11;;;;;;;15.80;4.18;;;;;;;;;;6273572;22;19999;-65
2021/12/23 13:11:41;;;;;;;0.47;0.47;;;;;;;;;;6273869;22;19995;-74
2021/12/23 13:14:12;;;;;;;2.90;2.72;;;;;;;;;;6274764;22;19996;-72
2021/12/23 13:16:49;;;;;;;14.25;13.23;;;;;;;;;;6274927;22;20019;-76
2021/12/23 13:19:17;;;;;;;0.20;0.20;;;;;;;;;;6274600;22;20004;-75
2021/12/23 13:21:44;;;;;;;1.38;1.27;;;;;;;;;;6247701;22;20441;-76
2021/12/23 13:24:11;;;;;;;0.00;0.00;;;;;;;;;;6274295;22;20444;-64
2021/12/23 13:26:36;;;;;;;0.00;0.00;;;;;;;;;;6270789;22;20434;-71
2021/12/23 13:29:03;;;;;;;2.05;1.95;;;;;;;;;;6270403;22;20003;-73
2021/12/23 13:31:30;;;;;;;0.03;0.03;;;;;;;;;;6270524;22;20061;-73
2021/12/23 13:33:55;;;;;;;1.00;1.00;;;;;;;;;;6270767;22;20002;-73
2021/12/23 13:36:29;;;;;;;0.63;0.63;;;;;;;;;;6270189;22;20000;-73
2021/12/23 13:38:55;;;;;;;0.90;0.90;;;;;;;;;;6244133;22;20008;-73
2021/12/23 13:41:23;;;;;;;0.38;0.38;;;;;;;;;;6271014;22;20006;-73
2021/12/23 13:43:48;;;;;;;6.20;5.65;;;;;;;;;;6272160;22;19995;-73
2021/12/23 13:46:13;;;;;;;0.80;0.80;;;;;;;;;;6270602;22;19996;-73
2021/12/23 13:49:02;;;;;;;0.40;0.40;;;;;;;;;;6271570;22;20034;-74
2021/12/23 13:51:29;;;;;;;29.08;10.25;;;;;;;;;;6271419;22;20071;-73
2021/12/23 13:54:20;;;;;;;3.72;3.53;;;;;;;;;;6270826;22;20376;-72
2021/12/23 13:56:48;;;;;;;2.55;1.92;;;;;;;;;;6263874;22;20007;-73
2021/12/23 13:59:18;;;;;;;3.40;1.98;;;;;;;;;;6270963;22;20083;-72
2021/12/23 14:02:04;;;;;;;0.28;0.28;;;;;;;;;;6271938;22;20026;-73
2021/12/23 14:04:34;;;;;;;2.38;1.65;;;;;;;;;;6276035;22;19996;-73
2021/12/23 14:07:00;;;;;;;0.47;0.47;;;;;;;;;;6270410;22;19995;-73
2021/12/23 14:09:33;;;;;;;0.00;0.00;;;;;;;;;;6270255;22;20048;-72
2021/12/23 14:11:59;;;;;;;0.35;0.35;;;;;;;;;;6269527;22;20009;-73
2021/12/23 14:14:24;;;;;;;0.10;0.10;;;;;;;;;;6270384;22;20022;-72
2021/12/23 14:16:50;;;;;;;0.00;0.00;;;;;;;;;;6270302;22;20015;-72
2021/12/23 14:19:24;;;;;;;0.00;0.00;;;;;;;;;;6271453;22;19996;-74
2021/12/23 14:24:34;;;;;;;0.00;0.00;;;;;;;;;;6271245;22;20026;-74
2021/12/23 14:26:59;;;;;;;0.15;0.15;;;;;;;;;;6238658;23;20024;-73
2021/12/23 14:29:30;;;;;;;0.00;0.00;;;;;;;;;;6240773;22;20048;-73
2021/12/23 14:31:56;;;;;;;0.00;0.00;;;;;;;;;;6236224;22;20415;-72
2021/12/23 14:34:24;;;;;;;0.90;0.90;;;;;;;;;;6237988;22;20043;-74
2021/12/23 14:36:54;;;;;;;3.92;3.83;;;;;;;;;;6238005;22;20078;-73
2021/12/23 14:39:26;;;;;;;0.63;0.63;;;;;;;;;;6239186;22;20003;-73
2021/12/23 14:41:56;;;;;;;0.20;0.20;;;;;;;;;;6239076;22;20631;-72
2021/12/23 14:44:22;;;;;;;0.00;0.00;;;;;;;;;;6239569;22;19996;-73
2021/12/23 14:46:49;;;;;;;0.00;0.00;;;;;;;;;;6239441;22;20502;-73
2021/12/23 14:52:15;;;;;;;4.97;1.13;;;;;;;;;;6238019;22;20004;-73
2021/12/23 14:54:49;;;;;;;0.00;0.00;;;;;;;;;;6238756;23;20050;-73
2021/12/23 14:57:17;;;;;;;0.00;0.00;;;;;;;;;;6237747;23;20015;-73
2021/12/23 14:59:50;;;;;;;0.00;0.00;;;;;;;;;;6237282;22;20003;-74
2021/12/23 15:02:19;;;;;;;0.20;0.20;;;;;;;;;;6237788;22;20111;-74
2021/12/23 15:04:45;;;;;;;;;;;;;;;;;;6239043;22;20086;-73
2021/12/23 15:07:11;;;;;;;1.33;1.33;;;;;;;;;;6239060;23;20276;-73
2021/12/23 15:09:40;;;;;;;0.13;0.13;;;;;;;;;;6239931;22;20287;-74
2021/12/23 15:12:13;;;;;;;0.00;0.00;;;;;;;;;;6241807;22;20003;-73
2021/12/23 15:14:44;;;;;;;5.55;5.15;;;;;;;;;;6240064;22;20000;-71
2021/12/23 15:17:15;;;;;;;0.10;0.10;;;;;;;;;;6242008;22;20000;-70
2021/12/23 15:19:42;;;;;;;0.55;0.55;;;;;;;;;;6240908;22;20004;-73
2021/12/23 15:22:18;;;;;;;0.00;0.00;;;;;;;;;;6241109;22;19996;-71
2021/12/23 15:24:45;;;;;;;0.00;0.00;;;;;;;;;;6239631;22;20000;-72
2021/12/23 15:30:03;;;;;;;2.67;1.20;;;;;;;;;;6260417;22;20031;-71
2021/12/23 15:32:30;;;;;;;0.00;0.00;;;;;;;;;;6271601;22;19996;-71
2021/12/23 15:35:01;;;;;;;0.00;0.00;;;;;;;;;;6270052;22;19996;-72
2021/12/23 15:37:28;;;;;;;0.00;0.00;;;;;;;;;;6271870;22;20012;-72
2021/12/23 15:39:53;;;;;;;0.10;0.10;;;;;;;;;;6271268;22;20381;-71
2021/12/23 15:42:19;;;;;;;0.00;0.00;;;;;;;;;;6272232;22;20004;-73
2021/12/23 15:44:46;;;;;;;0.00;0.00;;;;;;;;;;6271899;22;20004;-70
2021/12/23 15:47:12;;;;;;;0.00;0.00;;;;;;;;;;6272881;22;20367;-68
2021/12/23 15:49:37;;;;;;;0.00;0.00;;;;;;;;;;6271552;22;20000;-68
2021/12/23 15:52:03;;;;;;;0.00;0.00;;;;;;;;;;6273170;22;20006;-68
2021/12/23 15:54:29;;;;;;;0.47;0.47;;;;;;;;;;6272951;22;19996;-69
2021/12/23 15:56:55;;;;;;;3.10;0.32;;;;;;;;;;6273860;22;20079;-68
2021/12/23 15:59:21;;;;;;;0.50;0.50;;;;;;;;;;6268386;22;20075;-70
2021/12/23 16:01:46;;;;;;;0.32;0.20;;;;;;;;;;6272026;22;20003;-69